createdAt,value
2023-05-19T00:00:50.487Z,11.18
2023-05-19T00:01:53.329Z,11.18
2023-05-19T00:02:56.242Z,11.20
2023-05-19T00:04:02.141Z,11.22
2023-05-19T00:05:04.091Z,11.21
2023-05-19T00:06:08.602Z,11.18
2023-05-19T00:07:11.327Z,11.17
2023-05-19T00:08:16.674Z,11.14
2023-05-19T00:09:18.365Z,11.13
2023-05-19T00:10:20.271Z,11.11
2023-05-19T00:11:22.915Z,11.13
2023-05-19T00:12:24.631Z,11.14
2023-05-19T00:13:27.518Z,11.16
2023-05-19T00:14:29.551Z,11.15
2023-05-19T00:15:31.480Z,11.08
2023-05-19T00:16:34.401Z,11.08
2023-05-19T00:17:38.324Z,11.09
2023-05-19T00:18:40.721Z,11.07
2023-05-19T00:19:45.077Z,11.05
2023-05-19T00:20:46.870Z,11.00
2023-05-19T00:21:48.423Z,11.02
2023-05-19T00:22:51.104Z,11.02
2023-05-19T00:23:52.599Z,11.01
2023-05-19T00:24:56.825Z,10.97
2023-05-19T00:25:58.269Z,10.99
2023-05-19T00:27:02.816Z,10.99
2023-05-19T00:28:04.526Z,11.01
2023-05-19T00:29:06.076Z,10.99
2023-05-19T00:30:12.608Z,10.98
2023-05-19T00:31:14.363Z,10.95
2023-05-19T00:32:21.893Z,10.94
2023-05-19T00:33:23.426Z,10.92
2023-05-19T00:34:24.899Z,10.94
2023-05-19T00:35:26.551Z,10.89
2023-05-19T00:36:28.085Z,10.88
2023-05-19T00:37:29.549Z,10.89
2023-05-19T00:38:32.173Z,10.89
2023-05-19T00:39:33.662Z,10.89
2023-05-19T00:40:35.994Z,10.87
2023-05-19T00:41:37.557Z,10.89
2023-05-19T00:42:39.138Z,10.91
2023-05-19T00:43:40.672Z,10.91
2023-05-19T00:44:42.403Z,10.90
2023-05-19T00:45:44.100Z,10.91
2023-05-19T00:46:45.640Z,10.90
2023-05-19T00:47:47.226Z,10.88
2023-05-19T00:48:48.700Z,10.89
2023-05-19T00:49:50.229Z,10.90
2023-05-19T00:50:53.731Z,10.93
2023-05-19T00:51:55.817Z,10.92
2023-05-19T00:52:57.938Z,10.86
2023-05-19T00:54:00.322Z,10.86
2023-05-19T00:55:02.488Z,10.90
2023-05-19T00:56:04.239Z,10.94
2023-05-19T00:57:06.010Z,10.99
2023-05-19T00:58:10.872Z,10.99
2023-05-19T00:59:12.482Z,10.91
2023-05-19T01:00:14.827Z,10.89
2023-05-19T01:01:17.325Z,10.90
2023-05-19T01:02:19.259Z,10.88
2023-05-19T01:03:21.415Z,10.85
2023-05-19T01:04:25.521Z,10.86
2023-05-19T01:05:26.994Z,10.87
2023-05-19T01:06:29.699Z,10.88
2023-05-19T01:07:31.204Z,10.86
2023-05-19T01:08:34.168Z,10.85
2023-05-19T01:09:35.775Z,10.88
2023-05-19T01:10:37.829Z,10.88
2023-05-19T01:11:39.344Z,10.92
2023-05-19T01:12:41.089Z,10.94
2023-05-19T01:13:43.345Z,10.95
2023-05-19T01:14:45.647Z,10.97
2023-05-19T01:16:07.037Z,10.95
2023-05-19T01:17:40.346Z,10.96
2023-05-19T01:18:49.874Z,10.95
2023-05-19T01:20:05.066Z,10.93
2023-05-19T01:21:22.973Z,10.96
2023-05-19T01:22:42.905Z,10.98
2023-05-19T01:24:13.298Z,10.97
2023-05-19T01:25:33.061Z,10.93
2023-05-19T01:27:05.095Z,10.95
2023-05-19T01:28:37.098Z,10.96
2023-05-19T01:29:56.895Z,10.95
2023-05-19T01:31:00.966Z,10.95
2023-05-19T01:32:04.664Z,10.97
2023-05-19T01:33:08.981Z,10.98
2023-05-19T01:34:12.211Z,11.00
2023-05-19T01:35:16.768Z,11.03
2023-05-19T01:36:19.830Z,11.05
2023-05-19T01:37:21.764Z,11.07
2023-05-19T01:38:25.439Z,11.07
2023-05-19T01:39:28.336Z,11.08
2023-05-19T01:40:30.627Z,11.07
2023-05-19T01:41:33.786Z,11.09
2023-05-19T01:42:37.902Z,11.04
2023-05-19T01:43:40.367Z,11.07
2023-05-19T01:44:42.712Z,11.08
2023-05-19T01:45:45.520Z,11.05
2023-05-19T01:46:47.573Z,11.05
2023-05-19T01:47:55.683Z,11.07
2023-05-19T01:48:58.289Z,11.06
2023-05-19T01:49:59.791Z,11.06
2023-05-19T01:51:01.840Z,11.06
2023-05-19T01:52:03.626Z,11.00
2023-05-19T01:53:05.299Z,11.00
2023-05-19T01:54:06.908Z,11.06
2023-05-19T01:55:09.306Z,11.06
2023-05-19T01:56:11.274Z,11.06
2023-05-19T01:57:12.772Z,11.08
2023-05-19T01:58:20.717Z,11.14
2023-05-19T01:59:37.040Z,11.16
2023-05-19T02:01:00.423Z,11.19
2023-05-19T02:02:07.398Z,11.18
2023-05-19T02:03:47.068Z,11.21
2023-05-19T02:04:57.434Z,11.21
2023-05-19T02:06:15.282Z,11.24
2023-05-19T02:07:35.916Z,11.25
2023-05-19T02:08:48.420Z,11.27
2023-05-19T02:10:03.833Z,11.29
2023-05-19T02:11:32.046Z,11.31
2023-05-19T02:12:38.920Z,11.33
2023-05-19T02:13:44.300Z,11.34
2023-05-19T02:14:49.248Z,11.36
2023-05-19T02:15:53.297Z,11.37
2023-05-19T02:16:57.863Z,11.38
2023-05-19T02:18:00.388Z,11.39
2023-05-19T02:19:02.008Z,11.43
2023-05-19T02:20:04.638Z,11.39
2023-05-19T02:21:06.103Z,11.39
2023-05-19T02:22:07.577Z,11.40
2023-05-19T02:23:09.168Z,11.42
2023-05-19T02:24:10.962Z,11.40
2023-05-19T02:25:12.618Z,11.41
2023-05-19T02:26:14.100Z,11.30
2023-05-19T02:27:15.565Z,11.27
2023-05-19T02:28:17.396Z,11.26
2023-05-19T02:29:20.103Z,11.33
2023-05-19T02:30:21.621Z,11.37
2023-05-19T02:31:23.104Z,11.36
2023-05-19T02:32:24.582Z,11.35
2023-05-19T02:33:27.513Z,11.39
2023-05-19T02:34:28.918Z,11.39
2023-05-19T02:35:30.309Z,11.41
2023-05-19T02:36:37.651Z,11.36
2023-05-19T02:37:39.741Z,11.34
2023-05-19T02:38:41.263Z,11.30
2023-05-19T02:39:43.523Z,11.27
2023-05-19T02:40:44.978Z,11.31
2023-05-19T02:41:46.429Z,11.33
2023-05-19T02:42:47.887Z,11.37
2023-05-19T02:43:49.312Z,11.37
2023-05-19T02:44:51.553Z,11.34
2023-05-19T02:45:53.114Z,11.37
2023-05-19T02:46:54.674Z,11.36
2023-05-19T02:47:56.886Z,11.37
2023-05-19T02:48:58.412Z,11.38
2023-05-19T02:49:59.869Z,11.41
2023-05-19T02:51:01.565Z,11.44
2023-05-19T02:52:03.932Z,11.48
2023-05-19T02:53:05.432Z,11.49
2023-05-19T02:54:07.490Z,11.51
2023-05-19T02:55:09.144Z,11.52
2023-05-19T02:56:11.039Z,11.54
2023-05-19T02:57:12.535Z,11.53
2023-05-19T02:58:14.048Z,11.54
2023-05-19T02:59:15.819Z,11.57
2023-05-19T03:00:17.368Z,11.56
2023-05-19T03:01:21.336Z,11.59
2023-05-19T03:02:22.837Z,11.61
2023-05-19T03:03:24.626Z,11.62
2023-05-19T03:04:26.178Z,11.62
2023-05-19T03:05:27.665Z,11.65
2023-05-19T03:06:29.888Z,11.66
2023-05-19T03:07:31.366Z,11.67
2023-05-19T03:08:32.822Z,11.63
2023-05-19T03:09:34.267Z,11.63
2023-05-19T03:10:36.338Z,11.62
2023-05-19T03:11:37.819Z,11.62
2023-05-19T03:12:39.324Z,11.64
2023-05-19T03:13:41.098Z,11.60
2023-05-19T03:14:43.775Z,11.56
2023-05-19T03:15:45.262Z,11.50
2023-05-19T03:16:46.854Z,11.49
2023-05-19T03:17:48.785Z,11.53
2023-05-19T03:18:51.168Z,11.54
2023-05-19T03:19:52.675Z,11.57
2023-05-19T03:20:54.192Z,11.58
2023-05-19T03:21:56.510Z,11.49
2023-05-19T03:22:58.058Z,11.50
2023-05-19T03:23:59.532Z,11.54
2023-05-19T03:25:01.084Z,11.56
2023-05-19T03:26:04.254Z,11.59
2023-05-19T03:27:06.027Z,11.54
2023-05-19T03:28:07.524Z,11.53
2023-05-19T03:29:09.058Z,11.51
2023-05-19T03:30:11.314Z,11.56
2023-05-19T03:31:13.413Z,11.56
2023-05-19T03:32:15.049Z,11.51
2023-05-19T03:33:17.120Z,11.49
2023-05-19T03:34:18.804Z,11.46
2023-05-19T03:35:20.490Z,11.41
2023-05-19T03:36:22.676Z,11.41
2023-05-19T03:37:24.262Z,11.36
2023-05-19T03:38:25.813Z,11.40
2023-05-19T03:39:27.330Z,11.38
2023-05-19T03:40:28.825Z,11.40
2023-05-19T03:41:30.290Z,11.40
2023-05-19T03:42:31.820Z,11.41
2023-05-19T03:43:33.302Z,11.39
2023-05-19T03:44:34.938Z,11.39
2023-05-19T03:45:36.503Z,11.44
2023-05-19T03:46:38.172Z,11.47
2023-05-19T03:47:39.706Z,11.45
2023-05-19T03:48:41.388Z,11.49
2023-05-19T03:49:42.886Z,11.54
2023-05-19T03:50:44.565Z,11.58
2023-05-19T03:51:46.192Z,11.60
2023-05-19T03:52:48.859Z,11.58
2023-05-19T03:53:50.324Z,11.56
2023-05-19T03:54:52.958Z,11.59
2023-05-19T03:55:55.536Z,11.50
2023-05-19T03:56:57.231Z,11.55
2023-05-19T03:57:58.762Z,11.58
2023-05-19T03:59:00.258Z,11.62
2023-05-19T04:00:02.222Z,11.61
2023-05-19T04:01:03.761Z,11.62
2023-05-19T04:02:05.590Z,11.69
2023-05-19T04:03:08.204Z,11.70
2023-05-19T04:04:10.053Z,11.74
2023-05-19T04:05:11.675Z,11.75
2023-05-19T04:06:13.392Z,11.78
2023-05-19T04:07:14.858Z,11.83
2023-05-19T04:08:16.362Z,11.85
2023-05-19T04:09:19.383Z,11.86
2023-05-19T04:10:21.665Z,11.88
2023-05-19T04:11:23.164Z,11.89
2023-05-19T04:12:24.668Z,11.89
2023-05-19T04:13:26.237Z,11.89
2023-05-19T04:14:27.781Z,11.91
2023-05-19T04:15:29.371Z,11.89
2023-05-19T04:16:31.327Z,11.89
2023-05-19T04:17:33.027Z,11.92
2023-05-19T04:18:34.557Z,11.93
2023-05-19T04:19:36.134Z,11.95
2023-05-19T04:20:37.924Z,11.93
2023-05-19T04:21:39.417Z,11.94
2023-05-19T04:22:40.892Z,11.96
2023-05-19T04:23:42.391Z,11.95
2023-05-19T04:24:43.887Z,11.97
2023-05-19T04:25:45.854Z,11.95
2023-05-19T04:26:47.477Z,11.97
2023-05-19T04:27:49.075Z,11.99
2023-05-19T04:28:50.586Z,12.00
2023-05-19T04:29:52.729Z,11.99
2023-05-19T04:30:55.183Z,12.02
2023-05-19T04:32:00.951Z,12.05
2023-05-19T04:33:04.881Z,12.09
2023-05-19T04:34:08.021Z,12.11
2023-05-19T04:35:09.546Z,12.12
2023-05-19T04:36:11.795Z,12.13
2023-05-19T04:37:14.171Z,12.15
2023-05-19T04:38:18.873Z,12.19
2023-05-19T04:39:21.498Z,12.16
2023-05-19T04:40:24.172Z,12.14
2023-05-19T04:41:25.653Z,12.19
2023-05-19T04:42:33.028Z,12.19
2023-05-19T04:43:34.591Z,12.21
2023-05-19T04:44:38.061Z,12.24
2023-05-19T04:45:42.853Z,12.29
2023-05-19T04:46:46.145Z,12.31
2023-05-19T04:47:48.230Z,12.34
2023-05-19T04:48:50.666Z,12.36
2023-05-19T04:49:55.646Z,12.35
2023-05-19T04:50:58.172Z,12.35
2023-05-19T04:51:59.667Z,12.37
2023-05-19T04:53:01.135Z,12.36
2023-05-19T04:54:04.022Z,12.38
2023-05-19T04:55:05.988Z,12.37
2023-05-19T04:56:08.091Z,12.38
2023-05-19T04:57:13.015Z,12.27
2023-05-19T04:58:14.528Z,12.24
2023-05-19T04:59:16.036Z,12.31
2023-05-19T05:00:19.196Z,12.36
2023-05-19T05:01:25.902Z,12.38
2023-05-19T05:02:28.169Z,12.39
2023-05-19T05:03:30.974Z,12.38
2023-05-19T05:04:32.746Z,12.36
2023-05-19T05:05:35.131Z,12.37
2023-05-19T05:06:38.418Z,12.40
2023-05-19T05:07:39.931Z,12.45
2023-05-19T05:08:42.640Z,12.49
2023-05-19T05:09:44.198Z,12.50
2023-05-19T05:10:45.925Z,12.53
2023-05-19T05:11:47.632Z,12.53
2023-05-19T05:12:49.950Z,12.55
2023-05-19T05:13:51.807Z,12.59
2023-05-19T05:14:53.603Z,12.59
2023-05-19T05:15:56.260Z,12.60
2023-05-19T05:16:58.267Z,12.62
2023-05-19T05:18:00.385Z,12.60
2023-05-19T05:19:02.584Z,12.61
2023-05-19T05:20:06.641Z,12.61
2023-05-19T05:21:08.790Z,12.61
2023-05-19T05:22:10.624Z,12.60
2023-05-19T05:23:16.692Z,12.63
2023-05-19T05:24:18.511Z,12.61
2023-05-19T05:25:20.617Z,12.62
2023-05-19T05:26:26.433Z,12.64
2023-05-19T05:27:27.943Z,12.68
2023-05-19T05:28:29.796Z,12.69
2023-05-19T05:29:31.294Z,12.70
2023-05-19T05:30:34.623Z,12.73
2023-05-19T05:31:36.987Z,12.71
2023-05-19T05:32:38.693Z,12.75
2023-05-19T05:33:40.621Z,12.79
2023-05-19T05:34:42.452Z,12.84
2023-05-19T05:35:43.980Z,12.88
2023-05-19T05:36:45.556Z,12.88
2023-05-19T05:37:47.017Z,12.92
2023-05-19T05:38:48.665Z,12.91
2023-05-19T05:39:50.245Z,12.89
2023-05-19T05:40:51.883Z,12.91
2023-05-19T05:41:53.356Z,12.87
2023-05-19T05:42:59.122Z,12.85
2023-05-19T05:44:04.280Z,12.91
2023-05-19T05:45:06.784Z,12.92
2023-05-19T05:46:08.349Z,12.88
2023-05-19T05:47:11.842Z,12.90
2023-05-19T05:48:13.813Z,12.91
2023-05-19T05:49:15.670Z,12.97
2023-05-19T05:50:17.845Z,13.00
2023-05-19T05:51:22.292Z,12.94
2023-05-19T05:52:29.723Z,12.96
2023-05-19T05:53:33.718Z,12.97
2023-05-19T05:54:35.566Z,13.00
2023-05-19T05:55:37.221Z,13.06
2023-05-19T05:56:39.264Z,13.10
2023-05-19T05:57:41.966Z,13.12
2023-05-19T05:58:44.017Z,13.13
2023-05-19T05:59:47.095Z,13.14
2023-05-19T06:00:49.367Z,13.15
2023-05-19T06:01:51.106Z,13.14
2023-05-19T06:02:52.662Z,13.07
2023-05-19T06:03:54.276Z,13.04
2023-05-19T06:04:56.126Z,13.11
2023-05-19T06:05:57.897Z,13.11
2023-05-19T06:07:01.755Z,13.03
2023-05-19T06:08:03.989Z,13.04
2023-05-19T06:09:05.496Z,13.02
2023-05-19T06:10:09.032Z,13.05
2023-05-19T06:11:10.682Z,13.05
2023-05-19T06:12:12.264Z,13.09
2023-05-19T06:13:13.886Z,13.12
2023-05-19T06:14:15.497Z,13.17
2023-05-19T06:15:17.089Z,13.17
2023-05-19T06:16:18.633Z,13.19
2023-05-19T06:17:20.166Z,13.20
2023-05-19T06:18:21.728Z,13.21
2023-05-19T06:19:25.355Z,13.24
2023-05-19T06:20:26.975Z,13.21
2023-05-19T06:21:28.515Z,13.17
2023-05-19T06:22:30.120Z,13.22
2023-05-19T06:23:31.646Z,13.21
2023-05-19T06:24:33.104Z,13.18
2023-05-19T06:25:34.921Z,13.26
2023-05-19T06:26:36.450Z,13.28
2023-05-19T06:27:38.054Z,13.35
2023-05-19T06:28:39.527Z,13.40
2023-05-19T06:29:41.064Z,13.40
2023-05-19T06:30:42.553Z,13.42
2023-05-19T06:31:44.180Z,13.45
2023-05-19T06:32:46.182Z,13.48
2023-05-19T06:33:47.691Z,13.52
2023-05-19T06:34:54.461Z,13.52
2023-05-19T06:35:56.201Z,13.53
2023-05-19T06:36:57.731Z,13.49
2023-05-19T06:37:59.304Z,13.55
2023-05-19T06:39:02.594Z,13.59
2023-05-19T06:40:05.678Z,13.67
2023-05-19T06:41:07.202Z,13.64
2023-05-19T06:42:08.714Z,13.64
2023-05-19T06:43:10.456Z,13.65
2023-05-19T06:44:12.258Z,13.73
2023-05-19T06:45:13.822Z,13.81
2023-05-19T06:46:17.660Z,13.87
2023-05-19T06:47:19.740Z,13.91
2023-05-19T06:48:21.181Z,13.96
2023-05-19T06:49:23.140Z,14.00
2023-05-19T06:50:25.487Z,13.97
2023-05-19T06:51:27.232Z,13.97
2023-05-19T06:52:28.704Z,14.00
2023-05-19T06:53:30.834Z,13.99
2023-05-19T06:54:32.583Z,13.99
2023-05-19T06:55:37.061Z,13.99
2023-05-19T06:56:42.977Z,14.03
2023-05-19T06:57:44.469Z,14.12
2023-05-19T06:58:46.011Z,14.13
2023-05-19T06:59:47.859Z,14.08
2023-05-19T07:00:49.320Z,14.17
2023-05-19T07:01:50.929Z,14.16
2023-05-19T07:02:52.641Z,14.21
2023-05-19T07:03:54.238Z,14.22
2023-05-19T07:04:57.783Z,14.24
2023-05-19T07:05:59.409Z,14.21
2023-05-19T07:07:01.053Z,14.16
2023-05-19T07:08:02.665Z,14.20
2023-05-19T07:09:05.531Z,14.23
2023-05-19T07:10:07.997Z,14.29
2023-05-19T07:11:09.561Z,14.31
2023-05-19T07:12:11.084Z,14.38
2023-05-19T07:13:12.586Z,14.40
2023-05-19T07:14:14.092Z,14.30
2023-05-19T07:15:15.763Z,14.30
2023-05-19T07:16:17.293Z,14.30
2023-05-19T07:17:18.896Z,14.31
2023-05-19T07:18:20.599Z,14.32
2023-05-19T07:19:22.715Z,14.34
2023-05-19T07:20:24.280Z,14.34
2023-05-19T07:21:25.770Z,14.38
2023-05-19T07:22:27.497Z,14.30
2023-05-19T07:23:29.038Z,14.25
2023-05-19T07:24:31.503Z,14.30
2023-05-19T07:25:33.382Z,14.33
2023-05-19T07:26:34.852Z,14.34
2023-05-19T07:27:37.010Z,14.35
2023-05-19T07:28:43.526Z,14.45
2023-05-19T07:29:44.996Z,14.45
2023-05-19T07:30:46.450Z,14.47
2023-05-19T07:31:48.053Z,14.47
2023-05-19T07:32:49.663Z,14.45
2023-05-19T07:33:54.356Z,14.48
2023-05-19T07:34:56.549Z,14.52
2023-05-19T07:35:58.050Z,14.58
2023-05-19T07:36:59.670Z,14.65
2023-05-19T07:38:01.297Z,14.68
2023-05-19T07:39:02.902Z,14.70
2023-05-19T07:40:07.212Z,14.72
2023-05-19T07:41:08.679Z,14.74
2023-05-19T07:42:10.198Z,14.81
2023-05-19T07:43:11.735Z,14.89
2023-05-19T07:44:13.220Z,14.97
2023-05-19T07:45:15.107Z,15.08
2023-05-19T07:46:16.753Z,15.25
2023-05-19T07:47:18.360Z,15.42
2023-05-19T07:48:22.433Z,15.57
2023-05-19T07:49:23.938Z,15.62
2023-05-19T07:50:25.861Z,15.73
2023-05-19T07:51:27.369Z,15.88
2023-05-19T07:52:28.950Z,16.05
2023-05-19T07:53:30.673Z,16.17
2023-05-19T07:54:32.240Z,16.19
2023-05-19T07:55:34.090Z,16.29
2023-05-19T07:56:35.777Z,16.37
2023-05-19T07:57:37.716Z,16.37
2023-05-19T07:58:39.248Z,16.44
2023-05-19T07:59:40.855Z,16.52
2023-05-19T08:00:46.169Z,16.56
2023-05-19T08:01:47.767Z,16.61
2023-05-19T08:02:49.308Z,16.63
2023-05-19T08:03:51.134Z,16.58
2023-05-19T08:04:53.194Z,16.54
2023-05-19T08:05:58.164Z,16.55
2023-05-19T08:06:59.838Z,16.47
2023-05-19T08:08:01.891Z,16.44
2023-05-19T08:09:03.797Z,16.33
2023-05-19T08:10:05.736Z,16.32
2023-05-19T08:11:07.661Z,16.29
2023-05-19T08:12:09.154Z,16.28
2023-05-19T08:13:10.811Z,16.34
2023-05-19T08:14:12.696Z,16.44
2023-05-19T08:15:14.602Z,16.47
2023-05-19T08:16:16.356Z,16.33
2023-05-19T08:17:18.029Z,16.22
2023-05-19T08:18:20.147Z,16.25
2023-05-19T08:19:21.867Z,16.29
2023-05-19T08:20:24.733Z,16.28
2023-05-19T08:21:26.241Z,16.30
2023-05-19T08:22:28.139Z,16.33
2023-05-19T08:23:29.803Z,16.33
2023-05-19T08:24:33.888Z,16.25
2023-05-19T08:25:35.805Z,16.32
2023-05-19T08:26:37.939Z,16.32
2023-05-19T08:27:39.718Z,16.18
2023-05-19T08:28:41.379Z,16.21
2023-05-19T08:29:43.412Z,16.24
2023-05-19T08:30:44.947Z,16.10
2023-05-19T08:31:46.493Z,16.08
2023-05-19T08:32:48.815Z,16.00
2023-05-19T08:33:51.204Z,16.02
2023-05-19T08:34:53.002Z,15.92
2023-05-19T08:35:57.993Z,15.91
2023-05-19T08:36:59.821Z,15.91
2023-05-19T08:38:01.349Z,15.92
2023-05-19T08:39:03.310Z,15.95
2023-05-19T08:40:06.026Z,16.02
2023-05-19T08:41:07.563Z,16.03
2023-05-19T08:42:09.946Z,16.06
2023-05-19T08:43:11.814Z,16.05
2023-05-19T08:44:13.390Z,16.03
2023-05-19T08:45:15.669Z,16.01
2023-05-19T08:46:17.724Z,16.00
2023-05-19T08:47:20.049Z,15.95
2023-05-19T08:48:22.471Z,15.93
2023-05-19T08:49:32.508Z,15.85
2023-05-19T08:50:39.223Z,15.84
2023-05-19T08:51:50.498Z,15.85
2023-05-19T08:53:12.750Z,15.80
2023-05-19T08:54:29.330Z,15.81
2023-05-19T08:55:44.305Z,15.80
2023-05-19T08:56:46.577Z,15.84
2023-05-19T08:57:52.090Z,15.91
2023-05-19T08:58:56.526Z,15.92
2023-05-19T08:59:59.369Z,15.96
2023-05-19T09:01:01.899Z,15.90
2023-05-19T09:02:04.682Z,15.96
2023-05-19T09:03:18.283Z,15.94
2023-05-19T09:04:28.382Z,15.91
2023-05-19T09:05:32.675Z,15.94
2023-05-19T09:06:34.918Z,15.97
2023-05-19T09:07:37.882Z,16.00
2023-05-19T09:08:39.831Z,16.00
2023-05-19T09:09:43.897Z,16.03
2023-05-19T09:10:45.903Z,15.99
2023-05-19T09:11:47.505Z,16.02
2023-05-19T09:12:49.760Z,16.01
2023-05-19T09:13:51.457Z,16.01
2023-05-19T09:14:53.171Z,16.03
2023-05-19T09:15:56.915Z,15.99
2023-05-19T09:16:58.664Z,16.03
2023-05-19T09:18:18.530Z,16.07
2023-05-19T09:19:21.296Z,16.03
2023-05-19T09:20:23.410Z,16.02
2023-05-19T09:21:31.120Z,16.00
2023-05-19T09:22:35.824Z,15.99
2023-05-19T09:23:37.465Z,15.97
2023-05-19T09:24:40.440Z,15.96
2023-05-19T09:25:52.275Z,16.04
2023-05-19T09:26:57.915Z,16.10
2023-05-19T09:28:01.437Z,16.04
2023-05-19T09:29:03.253Z,15.99
2023-05-19T09:30:09.278Z,16.00
2023-05-19T09:31:11.537Z,16.02
2023-05-19T09:32:20.533Z,16.11
2023-05-19T09:33:22.239Z,16.25
2023-05-19T09:34:25.124Z,16.30
2023-05-19T09:35:26.665Z,16.38
2023-05-19T09:36:31.087Z,16.45
2023-05-19T09:37:32.669Z,16.56
2023-05-19T09:38:36.234Z,16.57
2023-05-19T09:39:38.696Z,16.56
2023-05-19T09:40:40.251Z,16.48
2023-05-19T09:41:42.423Z,16.53
2023-05-19T09:42:44.384Z,16.51
2023-05-19T09:43:54.691Z,16.53
2023-05-19T09:45:01.458Z,16.58
2023-05-19T09:46:08.125Z,16.68
2023-05-19T09:47:10.445Z,16.71
2023-05-19T09:48:12.697Z,16.74
2023-05-19T09:49:18.573Z,16.77
2023-05-19T09:50:20.467Z,16.76
2023-05-19T09:51:22.270Z,16.67
2023-05-19T09:52:24.127Z,16.59
2023-05-19T09:53:25.716Z,16.58
2023-05-19T09:54:28.394Z,16.52
2023-05-19T09:55:30.441Z,16.52
2023-05-19T09:56:34.789Z,16.55
2023-05-19T09:57:37.286Z,16.53
2023-05-19T09:58:42.161Z,16.54
2023-05-19T09:59:44.719Z,16.56
2023-05-19T10:00:47.609Z,16.60
2023-05-19T10:01:49.209Z,16.58
2023-05-19T10:02:51.033Z,16.59
2023-05-19T10:03:53.474Z,16.48
2023-05-19T10:04:55.446Z,16.47
2023-05-19T10:05:57.797Z,16.46
2023-05-19T10:06:59.803Z,16.45
2023-05-19T10:08:07.164Z,16.38
2023-05-19T10:09:08.830Z,16.38
2023-05-19T10:10:13.261Z,16.39
2023-05-19T10:11:16.132Z,16.43
2023-05-19T10:12:18.052Z,16.45
2023-05-19T10:13:21.410Z,16.43
2023-05-19T10:14:27.693Z,16.41
2023-05-19T10:15:29.656Z,16.45
2023-05-19T10:16:32.961Z,16.57
2023-05-19T10:17:35.698Z,16.68
2023-05-19T10:18:39.947Z,16.76
2023-05-19T10:19:43.925Z,16.91
2023-05-19T10:20:47.565Z,17.00
2023-05-19T10:21:50.073Z,17.12
2023-05-19T10:22:51.680Z,17.17
2023-05-19T10:23:53.256Z,17.29
2023-05-19T10:24:56.072Z,17.37
2023-05-19T10:25:59.506Z,17.45
2023-05-19T10:27:05.505Z,17.53
2023-05-19T10:28:15.046Z,17.57
2023-05-19T10:29:21.176Z,17.62
2023-05-19T10:30:28.450Z,17.49
2023-05-19T10:31:33.848Z,17.49
2023-05-19T10:32:39.126Z,17.43
2023-05-19T10:33:55.843Z,17.37
2023-05-19T10:35:15.631Z,17.37
2023-05-19T10:36:45.690Z,17.46
2023-05-19T10:38:34.037Z,17.48
2023-05-19T10:39:36.260Z,17.43
2023-05-19T10:40:43.748Z,17.41
2023-05-19T10:41:58.875Z,17.46
2023-05-19T10:43:17.662Z,17.50
2023-05-19T10:44:44.200Z,17.60
2023-05-19T10:45:51.615Z,17.60
2023-05-19T10:46:55.627Z,17.76
2023-05-19T10:47:58.292Z,17.94
2023-05-19T10:49:00.052Z,18.03
2023-05-19T10:50:01.673Z,18.16
2023-05-19T10:51:03.463Z,18.20
2023-05-19T10:52:19.779Z,18.21
2023-05-19T10:53:22.805Z,18.22
2023-05-19T10:54:46.917Z,18.15
2023-05-19T10:56:05.025Z,18.15
2023-05-19T10:57:07.196Z,18.18
2023-05-19T10:58:08.731Z,18.20
2023-05-19T10:59:31.156Z,18.24
2023-05-19T11:00:32.858Z,18.24
2023-05-19T11:01:35.631Z,18.24
2023-05-19T11:02:42.384Z,18.20
2023-05-19T11:03:54.873Z,18.17
2023-05-19T11:05:09.116Z,18.23
2023-05-19T11:06:30.761Z,18.26
2023-05-19T11:07:32.376Z,18.27
2023-05-19T11:08:34.915Z,18.30
2023-05-19T11:09:43.147Z,18.37
2023-05-19T11:10:46.198Z,18.42
2023-05-19T11:11:49.700Z,18.45
2023-05-19T11:12:52.390Z,18.45
2023-05-19T11:13:55.360Z,18.48
2023-05-19T11:14:58.119Z,18.50
2023-05-19T11:16:07.294Z,18.53
2023-05-19T11:17:14.416Z,18.61
2023-05-19T11:18:16.275Z,18.63
2023-05-19T11:19:32.206Z,18.61
2023-05-19T11:20:39.082Z,18.51
2023-05-19T11:21:57.893Z,18.49
2023-05-19T11:23:33.497Z,18.48
2023-05-19T11:24:44.672Z,18.34
2023-05-19T11:25:51.508Z,18.25
2023-05-19T11:26:54.814Z,18.17
2023-05-19T11:27:56.804Z,18.12
2023-05-19T11:28:58.383Z,18.11
2023-05-19T11:30:15.154Z,18.15
2023-05-19T11:31:16.806Z,18.19
2023-05-19T11:32:21.361Z,18.21
2023-05-19T11:33:27.357Z,18.23
2023-05-19T11:34:30.792Z,18.24
2023-05-19T11:35:35.394Z,18.27
2023-05-19T11:36:39.983Z,18.29
2023-05-19T11:37:42.649Z,18.34
2023-05-19T11:38:45.360Z,18.37
2023-05-19T11:39:47.557Z,18.41
2023-05-19T11:40:52.682Z,18.40
2023-05-19T11:41:56.055Z,18.47
2023-05-19T11:42:58.159Z,18.52
2023-05-19T11:43:59.755Z,18.56
2023-05-19T11:45:01.479Z,18.61
2023-05-19T11:46:02.994Z,18.58
2023-05-19T11:47:08.318Z,18.55
2023-05-19T11:48:13.049Z,18.46
2023-05-19T11:49:15.635Z,18.42
2023-05-19T11:50:17.272Z,18.49
2023-05-19T11:51:21.450Z,18.58
2023-05-19T11:52:24.698Z,18.66
2023-05-19T11:53:26.313Z,18.74
2023-05-19T11:54:33.929Z,18.73
2023-05-19T11:55:41.910Z,18.78
2023-05-19T11:56:43.439Z,18.84
2023-05-19T11:58:05.450Z,18.90
2023-05-19T11:59:10.333Z,18.96
2023-05-19T12:00:12.565Z,19.07
2023-05-19T12:01:14.092Z,19.12
2023-05-19T12:02:19.544Z,19.30
2023-05-19T12:03:28.130Z,19.38
2023-05-19T12:04:30.940Z,19.49
2023-05-19T12:05:35.475Z,19.56
2023-05-19T12:06:40.347Z,19.65
2023-05-19T12:07:43.850Z,19.67
2023-05-19T12:08:45.679Z,19.84
2023-05-19T12:09:47.431Z,20.02
2023-05-19T12:10:50.825Z,20.15
2023-05-19T12:11:52.988Z,20.19
2023-05-19T12:12:55.088Z,20.25
2023-05-19T12:13:59.513Z,20.06
2023-05-19T12:15:04.097Z,20.01
2023-05-19T12:16:06.248Z,19.98
2023-05-19T12:17:12.417Z,19.94
2023-05-19T12:18:14.074Z,19.93
2023-05-19T12:19:18.613Z,19.92
2023-05-19T12:20:20.371Z,19.78
2023-05-19T12:21:21.940Z,19.83
2023-05-19T12:22:23.593Z,19.85
2023-05-19T12:23:25.459Z,19.83
2023-05-19T12:24:27.097Z,19.78
2023-05-19T12:25:29.741Z,19.74
2023-05-19T12:26:31.312Z,19.66
2023-05-19T12:27:37.132Z,19.60
2023-05-19T12:28:38.573Z,19.64
2023-05-19T12:29:40.507Z,19.63
2023-05-19T12:30:48.130Z,19.67
2023-05-19T12:31:49.693Z,19.68
2023-05-19T12:32:54.246Z,19.67
2023-05-19T12:33:56.005Z,19.66
2023-05-19T12:34:57.523Z,19.63
2023-05-19T12:35:58.972Z,19.66
2023-05-19T12:37:02.569Z,19.66
2023-05-19T12:38:04.943Z,19.62
2023-05-19T12:39:06.633Z,19.64
2023-05-19T12:40:09.461Z,19.63
2023-05-19T12:41:12.731Z,19.61
2023-05-19T12:42:15.998Z,19.65
2023-05-19T12:43:24.261Z,19.65
2023-05-19T12:44:25.707Z,19.65
2023-05-19T12:45:28.585Z,19.64
2023-05-19T12:46:32.996Z,19.57
2023-05-19T12:47:35.834Z,19.54
2023-05-19T12:48:41.668Z,19.45
2023-05-19T12:50:04.371Z,19.57
2023-05-19T12:51:05.898Z,19.68
2023-05-19T12:52:11.915Z,19.79
2023-05-19T12:53:15.244Z,19.92
2023-05-19T12:54:22.142Z,20.03
2023-05-19T12:55:24.452Z,20.10
2023-05-19T12:56:27.056Z,20.24
2023-05-19T12:57:32.456Z,20.36
2023-05-19T12:58:34.389Z,20.43
2023-05-19T12:59:38.643Z,20.48
2023-05-19T13:00:46.382Z,20.42
2023-05-19T13:01:56.643Z,20.44
2023-05-19T13:03:07.411Z,20.45
2023-05-19T13:04:09.049Z,20.51
2023-05-19T13:05:10.668Z,20.59
2023-05-19T13:06:12.133Z,20.69
2023-05-19T13:07:13.709Z,20.80
2023-05-19T13:08:20.580Z,20.97
2023-05-19T13:09:22.175Z,21.05
2023-05-19T13:10:25.664Z,21.12
2023-05-19T13:11:27.098Z,20.99
2023-05-19T13:12:29.410Z,20.96
2023-05-19T13:13:30.927Z,20.88
2023-05-19T13:14:32.389Z,20.82
2023-05-19T13:15:37.892Z,20.82
2023-05-19T13:16:39.505Z,20.80
2023-05-19T13:17:41.354Z,20.80
2023-05-19T13:18:42.929Z,20.79
2023-05-19T13:19:44.504Z,20.81
2023-05-19T13:20:47.434Z,20.85
2023-05-19T13:21:50.929Z,20.85
2023-05-19T13:22:52.794Z,20.85
2023-05-19T13:23:54.330Z,20.92
2023-05-19T13:24:58.799Z,20.99
2023-05-19T13:26:00.581Z,20.98
2023-05-19T13:27:03.507Z,20.98
2023-05-19T13:28:05.919Z,20.96
2023-05-19T13:29:08.472Z,20.94
2023-05-19T13:30:10.289Z,20.88
2023-05-19T13:31:11.905Z,20.84
2023-05-19T13:32:13.762Z,20.69
2023-05-19T13:33:15.353Z,20.59
2023-05-19T13:34:18.284Z,20.58
2023-05-19T13:35:19.942Z,20.52
2023-05-19T13:36:21.594Z,20.46
2023-05-19T13:37:23.691Z,20.48
2023-05-19T13:38:25.193Z,20.64
2023-05-19T13:39:26.698Z,20.75
2023-05-19T13:40:32.796Z,20.85
2023-05-19T13:41:34.532Z,20.97